createdAt,value
2022-08-28T00:01:46.247Z,98962.59
2022-08-28T00:04:35.738Z,98984.88
2022-08-28T00:07:22.447Z,98964.31
2022-08-28T00:10:10.298Z,98984.06
2022-08-28T00:12:58.065Z,98963.59
2022-08-28T00:15:46.924Z,98996.44
2022-08-28T00:18:33.806Z,98991.38
2022-08-28T00:21:20.547Z,98941.97
2022-08-28T00:24:07.213Z,98983.94
2022-08-28T00:27:12.103Z,98969.41
2022-08-28T00:29:59.222Z,98971.09
2022-08-28T00:32:46.117Z,98976.88
2022-08-28T00:35:33.365Z,98985.84
2022-08-28T00:38:21.552Z,98995.34
2022-08-28T00:41:07.793Z,98979.13
2022-08-28T00:44:10.262Z,98990.19
2022-08-28T00:46:59.230Z,98971.09
2022-08-28T00:49:51.077Z,98991.78
2022-08-28T00:52:38.455Z,98975.56
2022-08-28T00:55:28.116Z,98991.03
2022-08-28T00:58:14.546Z,98973.88
2022-08-28T01:01:01.596Z,98969.72
2022-08-28T01:03:48.361Z,98983.56
2022-08-28T01:06:36.660Z,98978.34
2022-08-28T01:09:26.506Z,98987.88
2022-08-28T01:12:17.821Z,98973.56
2022-08-28T01:15:11.744Z,98967.59
2022-08-28T01:18:08.110Z,98978.13
2022-08-28T01:21:05.420Z,98945.63
2022-08-28T01:24:03.157Z,98976.53
2022-08-28T01:26:49.970Z,98946.53
2022-08-28T01:29:36.805Z,98921.78
2022-08-28T01:32:45.498Z,98983.53
2022-08-28T01:35:35.017Z,98983.66
2022-08-28T01:38:22.027Z,98968.44
2022-08-28T01:41:14.058Z,98970.13
2022-08-28T01:44:01.482Z,98958.91
2022-08-28T01:46:48.008Z,98949.44
2022-08-28T01:49:34.462Z,98926.22
2022-08-28T01:52:26.261Z,98966.66
2022-08-28T01:55:14.000Z,98950.41
2022-08-28T01:58:00.361Z,98965.13
2022-08-28T02:00:46.881Z,98964.28
2022-08-28T02:03:33.495Z,98940.34
2022-08-28T02:06:20.090Z,98967.03
2022-08-28T02:09:10.290Z,98992.72
2022-08-28T02:12:02.095Z,98993.50
2022-08-28T02:14:49.007Z,98973.88
2022-08-28T02:17:35.330Z,98971.22
2022-08-28T02:20:22.468Z,98967.72
2022-08-28T02:23:10.223Z,98954.75
2022-08-28T02:25:56.607Z,98977.53
2022-08-28T02:28:43.321Z,98996.34
2022-08-28T02:31:30.282Z,98953.53
2022-08-28T02:34:17.374Z,98960.50
2022-08-28T02:37:04.035Z,98999.88
2022-08-28T02:39:54.432Z,98994.66
2022-08-28T02:42:42.090Z,98987.00
2022-08-28T02:45:28.852Z,98957.06
2022-08-28T02:48:16.801Z,98983.47
2022-08-28T02:51:13.255Z,98981.91
2022-08-28T02:54:01.266Z,98986.22
2022-08-28T02:56:47.759Z,98965.59
2022-08-28T02:59:35.486Z,98976.75
2022-08-28T03:02:22.764Z,98963.13
2022-08-28T03:05:10.216Z,98955.38
2022-08-28T03:07:57.041Z,98953.66
2022-08-28T03:10:43.811Z,98987.22
2022-08-28T03:13:31.289Z,98958.91
2022-08-28T03:16:18.029Z,98962.34
2022-08-28T03:19:04.222Z,98972.84
2022-08-28T03:21:50.613Z,98970.44
2022-08-28T03:24:39.342Z,98940.34
2022-08-28T03:27:25.666Z,98947.41
2022-08-28T03:30:12.377Z,98985.09
2022-08-28T03:32:58.865Z,98977.22
2022-08-28T03:35:45.309Z,98959.53
2022-08-28T03:38:32.089Z,98960.94
2022-08-28T03:41:20.460Z,98993.44
2022-08-28T03:44:07.125Z,98989.09
2022-08-28T03:46:53.434Z,98983.81
2022-08-28T03:49:39.922Z,98945.19
2022-08-28T03:52:26.387Z,98988.00
2022-08-28T03:55:13.190Z,98965.66
2022-08-28T03:57:59.481Z,98994.66
2022-08-28T04:00:46.279Z,99007.50
2022-08-28T04:03:33.139Z,98956.63
2022-08-28T04:06:19.801Z,99004.75
2022-08-28T04:09:06.175Z,99005.63
2022-08-28T04:11:53.994Z,98974.75
2022-08-28T04:14:40.699Z,99002.94
2022-08-28T04:17:27.127Z,98982.44
2022-08-28T04:20:13.829Z,98997.00
2022-08-28T04:23:02.688Z,99000.38
2022-08-28T04:25:49.259Z,98999.50
2022-08-28T04:28:35.707Z,98982.41
2022-08-28T04:31:32.380Z,99011.50
2022-08-28T04:34:19.463Z,98982.28
2022-08-28T04:37:06.516Z,98989.16
2022-08-28T04:39:53.634Z,98997.72
2022-08-28T04:42:40.231Z,98952.28
2022-08-28T04:45:26.711Z,98968.53
2022-08-28T04:48:14.309Z,99013.94
2022-08-28T04:51:01.245Z,98990.81
2022-08-28T04:53:48.170Z,98974.50
2022-08-28T04:56:34.735Z,98986.56
2022-08-28T04:59:21.166Z,99004.56
2022-08-28T05:02:07.797Z,99018.34
2022-08-28T05:04:54.137Z,99034.75
2022-08-28T05:07:40.465Z,99020.88
2022-08-28T05:10:31.286Z,99000.41
2022-08-28T05:13:18.318Z,99038.19
2022-08-28T05:16:05.354Z,99015.75
2022-08-28T05:18:51.687Z,99017.41
2022-08-28T05:21:38.844Z,99036.88
2022-08-28T05:24:25.429Z,99030.03
2022-08-28T05:27:11.982Z,99031.63
2022-08-28T05:30:01.736Z,99014.56
2022-08-28T05:32:48.542Z,98996.56
2022-08-28T05:35:38.271Z,99038.44
2022-08-28T05:38:24.892Z,99028.09
2022-08-28T05:41:11.887Z,99027.34
2022-08-28T05:44:01.889Z,99016.03
2022-08-28T05:46:48.684Z,99030.56
2022-08-28T05:49:34.963Z,99010.69
2022-08-28T05:52:21.142Z,99002.13
2022-08-28T05:55:08.975Z,99007.16
2022-08-28T05:57:55.223Z,99012.31
2022-08-28T06:00:41.577Z,99038.84
2022-08-28T06:03:28.211Z,99044.50
2022-08-28T06:06:14.497Z,99011.84
2022-08-28T06:09:05.888Z,99060.75
2022-08-28T06:11:54.458Z,99057.06
2022-08-28T06:14:41.153Z,99035.84
2022-08-28T06:17:27.659Z,99031.28
2022-08-28T06:20:13.867Z,99014.97
2022-08-28T06:23:00.430Z,99036.53
2022-08-28T06:25:49.103Z,99067.22
2022-08-28T06:28:36.049Z,99019.22
2022-08-28T06:31:23.442Z,99031.06
2022-08-28T06:34:12.231Z,99044.03
2022-08-28T06:36:58.779Z,99073.06
2022-08-28T06:39:45.089Z,99030.00
2022-08-28T06:42:31.497Z,99068.44
2022-08-28T06:45:18.373Z,99081.34
2022-08-28T06:48:05.017Z,99064.81
2022-08-28T06:50:53.136Z,99089.81
2022-08-28T06:53:41.709Z,99047.78
2022-08-28T06:56:28.165Z,99089.59
2022-08-28T06:59:14.674Z,99064.44
2022-08-28T07:02:02.212Z,99081.47
2022-08-28T07:04:53.515Z,99097.59
2022-08-28T07:07:39.873Z,99076.44
2022-08-28T07:10:29.330Z,99109.97
2022-08-28T07:13:15.979Z,99082.44
2022-08-28T07:16:03.512Z,99064.41
2022-08-28T07:18:49.921Z,99069.28
2022-08-28T07:21:39.083Z,99068.13
2022-08-28T07:24:27.102Z,99101.97
2022-08-28T07:27:18.303Z,99087.91
2022-08-28T07:30:07.130Z,99083.53
2022-08-28T07:32:53.538Z,99068.13
2022-08-28T07:35:43.935Z,99090.31
2022-08-28T07:38:30.173Z,99105.28
2022-08-28T07:41:23.449Z,99102.06
2022-08-28T07:44:31.728Z,99111.13
2022-08-28T07:47:18.546Z,99100.63
2022-08-28T07:50:05.205Z,99114.84
2022-08-28T07:52:51.416Z,99121.00
2022-08-28T07:55:37.642Z,99127.56
2022-08-28T07:58:26.016Z,99096.09
2022-08-28T08:01:12.575Z,99114.47
2022-08-28T08:04:01.481Z,99133.13
2022-08-28T08:06:54.471Z,99137.53
2022-08-28T08:09:44.727Z,99116.81
2022-08-28T08:12:31.848Z,99131.53
2022-08-28T08:15:19.273Z,99147.53
2022-08-28T08:18:05.643Z,99128.59
2022-08-28T08:20:52.190Z,99148.03
2022-08-28T08:23:40.001Z,99157.94
2022-08-28T08:26:30.769Z,99147.34
2022-08-28T08:29:17.753Z,99134.31
2022-08-28T08:32:11.010Z,99136.09
2022-08-28T08:34:57.266Z,99135.31
2022-08-28T08:37:43.442Z,99137.81
2022-08-28T08:40:30.366Z,99136.91
2022-08-28T08:43:18.325Z,99150.16
2022-08-28T08:46:04.439Z,99141.69
2022-08-28T08:48:51.611Z,99138.00
2022-08-28T08:51:46.513Z,99170.75
2022-08-28T08:54:32.939Z,99147.09
2022-08-28T08:57:20.790Z,99155.50
2022-08-28T09:00:15.773Z,99176.88
2022-08-28T09:03:07.628Z,99171.28
2022-08-28T09:06:00.040Z,99170.72
2022-08-28T09:08:52.662Z,99177.13
2022-08-28T09:12:04.898Z,99179.81
2022-08-28T09:15:32.182Z,99181.56
2022-08-28T09:18:31.405Z,99189.25
2022-08-28T09:21:30.737Z,99183.84
2022-08-28T09:24:36.442Z,99178.63
2022-08-28T09:27:28.985Z,99188.59
2022-08-28T09:30:16.323Z,99185.81
2022-08-28T09:33:03.214Z,99183.63
2022-08-28T09:35:49.770Z,99149.25
2022-08-28T09:38:36.670Z,99189.44
2022-08-28T09:41:41.611Z,99151.47
2022-08-28T09:44:28.290Z,99179.38
2022-08-28T09:47:46.375Z,99175.66
2022-08-28T09:50:38.766Z,99171.03
2022-08-28T09:53:28.153Z,99170.88
2022-08-28T09:56:21.346Z,99169.00
2022-08-28T09:59:07.827Z,99176.47
2022-08-28T10:02:10.503Z,99115.34
2022-08-28T10:05:26.698Z,99170.66
2022-08-28T10:09:01.405Z,99175.84
2022-08-28T10:12:12.496Z,99183.09
2022-08-28T10:15:17.956Z,99170.19
2022-08-28T10:18:07.034Z,99186.34
2022-08-28T10:21:27.481Z,99175.59
2022-08-28T10:24:37.342Z,99182.50
2022-08-28T10:28:00.191Z,99176.50
2022-08-28T10:31:13.514Z,99162.75
2022-08-28T10:34:36.941Z,99184.56
2022-08-28T10:37:42.876Z,99159.25
2022-08-28T10:40:35.730Z,99154.97
2022-08-28T10:43:33.712Z,99150.22
2022-08-28T10:46:27.481Z,99146.16
2022-08-28T10:49:19.799Z,99168.34
2022-08-28T10:52:16.169Z,99178.34
2022-08-28T10:55:21.518Z,99159.16
2022-08-28T10:58:23.794Z,99179.28
2022-08-28T11:01:21.063Z,99178.84
2022-08-28T11:04:15.620Z,99178.06
2022-08-28T11:07:09.198Z,99149.69
2022-08-28T11:10:14.945Z,99161.34
2022-08-28T11:13:03.606Z,99148.84
2022-08-28T11:15:53.323Z,99158.94
2022-08-28T11:18:59.060Z,99139.78
2022-08-28T11:22:17.761Z,99139.28
2022-08-28T11:25:26.714Z,99175.78
2022-08-28T11:28:47.257Z,99173.72
2022-08-28T11:31:38.314Z,99173.03
2022-08-28T11:34:58.853Z,99175.91
2022-08-28T11:37:48.667Z,99150.66
2022-08-28T11:40:36.517Z,99177.91
2022-08-28T11:43:23.553Z,99170.63
2022-08-28T11:46:34.454Z,99168.56
2022-08-28T11:49:23.667Z,99173.88
2022-08-28T11:52:29.663Z,99169.28
2022-08-28T11:55:31.146Z,99157.00
2022-08-28T11:58:44.531Z,99145.19
2022-08-28T12:01:35.774Z,99174.97
2022-08-28T12:04:23.628Z,99160.34
2022-08-28T12:07:09.897Z,99169.22
2022-08-28T12:09:56.417Z,99139.25
2022-08-28T12:12:46.124Z,99170.06
2022-08-28T12:15:33.393Z,99167.34
2022-08-28T12:18:52.067Z,99151.47
2022-08-28T12:21:39.016Z,99139.06
2022-08-28T12:24:25.801Z,99138.00
2022-08-28T12:27:13.867Z,99124.84
2022-08-28T12:30:01.960Z,99142.66
2022-08-28T12:32:58.289Z,99144.13
2022-08-28T12:35:44.950Z,99155.50
2022-08-28T12:38:33.414Z,99147.75
2022-08-28T12:41:24.463Z,99156.25
2022-08-28T12:44:14.447Z,99133.09
2022-08-28T12:47:01.011Z,99129.47
2022-08-28T12:49:48.831Z,99134.53
2022-08-28T12:52:35.033Z,99135.84
2022-08-28T12:55:24.554Z,99127.94
2022-08-28T12:58:27.918Z,99154.38
2022-08-28T13:01:35.371Z,99143.00
2022-08-28T13:04:31.014Z,99143.09
2022-08-28T13:07:23.947Z,99141.56
2022-08-28T13:10:22.790Z,99144.63
2022-08-28T13:13:20.500Z,99129.91
2022-08-28T13:16:12.793Z,99132.81
2022-08-28T13:19:05.467Z,99130.78
2022-08-28T13:22:01.938Z,99103.09
2022-08-28T13:24:48.540Z,99099.31
2022-08-28T13:27:35.574Z,99126.91
2022-08-28T13:30:30.980Z,99124.81
2022-08-28T13:33:24.914Z,99120.00
2022-08-28T13:36:22.404Z,99095.97
2022-08-28T13:39:09.668Z,99118.72
2022-08-28T13:41:58.914Z,99104.03
2022-08-28T13:44:49.059Z,99090.69
2022-08-28T13:47:35.567Z,99088.97
2022-08-28T13:50:22.807Z,99062.75
2022-08-28T13:53:09.982Z,99102.22
2022-08-28T13:55:58.358Z,99081.63
2022-08-28T13:58:44.740Z,99079.31
2022-08-28T14:01:58.486Z,99098.22
2022-08-28T14:04:45.542Z,99072.31
2022-08-28T14:07:32.054Z,99073.28
2022-08-28T14:10:18.910Z,99062.13
2022-08-28T14:13:05.262Z,99057.50
2022-08-28T14:15:51.693Z,99068.53
2022-08-28T14:18:38.008Z,99076.66
2022-08-28T14:21:24.605Z,99059.63
2022-08-28T14:24:11.957Z,99063.91
2022-08-28T14:26:58.688Z,99080.78
2022-08-28T14:29:45.251Z,99060.09
2022-08-28T14:32:31.547Z,99079.06
2022-08-28T14:35:17.934Z,99050.34
2022-08-28T14:38:04.533Z,99040.53
2022-08-28T14:40:50.826Z,99027.94
2022-08-28T14:43:42.367Z,99050.09
2022-08-28T14:46:35.784Z,99076.13
2022-08-28T14:49:23.310Z,99041.09
2022-08-28T14:52:09.842Z,99057.38
2022-08-28T14:54:56.338Z,99055.28
2022-08-28T14:57:42.794Z,99030.75
2022-08-28T15:00:39.317Z,99038.25
2022-08-28T15:03:25.763Z,99041.19
2022-08-28T15:06:11.873Z,99034.75
2022-08-28T15:08:58.506Z,99066.44
2022-08-28T15:11:45.376Z,99070.22
2022-08-28T15:14:31.870Z,99059.25
2022-08-28T15:17:18.523Z,99056.13
2022-08-28T15:20:05.657Z,99069.84
2022-08-28T15:22:52.085Z,99068.69
2022-08-28T15:25:38.642Z,99063.03
2022-08-28T15:28:24.998Z,99057.75
2022-08-28T15:31:12.016Z,99034.50
2022-08-28T15:34:02.931Z,99044.41
2022-08-28T15:36:56.076Z,99011.78
2022-08-28T15:40:01.332Z,99056.44
2022-08-28T15:42:48.460Z,99002.03
2022-08-28T15:45:39.260Z,99050.34
2022-08-28T15:48:26.211Z,99009.13
2022-08-28T15:51:12.511Z,99044.31
2022-08-28T15:53:59.753Z,99044.41
2022-08-28T15:56:46.660Z,99043.91
2022-08-28T15:59:40.017Z,99046.97
2022-08-28T16:02:36.620Z,99020.44
2022-08-28T16:05:22.822Z,99030.09
2022-08-28T16:08:10.417Z,99054.88
2022-08-28T16:10:56.890Z,99037.16
2022-08-28T16:13:43.106Z,99027.72
2022-08-28T16:16:29.306Z,99024.13
2022-08-28T16:19:15.675Z,99021.28
2022-08-28T16:22:02.533Z,99026.94
2022-08-28T16:24:49.198Z,99027.78
2022-08-28T16:27:35.511Z,99049.88
2022-08-28T16:30:24.290Z,99022.63
2022-08-28T16:33:10.774Z,99051.59
2022-08-28T16:35:57.677Z,99056.03
2022-08-28T16:38:46.150Z,99049.03
2022-08-28T16:41:32.617Z,99048.06
2022-08-28T16:44:25.338Z,99030.50
2022-08-28T16:47:12.069Z,99002.31
2022-08-28T16:50:00.663Z,99018.34
2022-08-28T16:52:47.173Z,99039.75
2022-08-28T16:55:33.858Z,99042.38
2022-08-28T16:58:20.381Z,99016.69
2022-08-28T17:01:08.207Z,99059.13
2022-08-28T17:03:57.171Z,99032.38
2022-08-28T17:06:44.524Z,99053.69
2022-08-28T17:09:31.565Z,99034.00
2022-08-28T17:12:18.461Z,99055.31
2022-08-28T17:15:07.281Z,99037.06
2022-08-28T17:17:53.615Z,99054.19
2022-08-28T17:20:58.950Z,99038.94
2022-08-28T17:23:46.445Z,99003.66
2022-08-28T17:26:32.948Z,99030.69
2022-08-28T17:29:20.139Z,99025.56
2022-08-28T17:32:07.865Z,99046.19
2022-08-28T17:34:54.102Z,99051.47
2022-08-28T17:37:40.714Z,99069.72
2022-08-28T17:40:27.340Z,99065.63
2022-08-28T17:43:13.796Z,99043.09
2022-08-28T17:46:00.765Z,99050.31
2022-08-28T17:48:47.912Z,99063.31
2022-08-28T17:51:44.300Z,99064.31
2022-08-28T17:54:31.360Z,99078.69
2022-08-28T17:57:17.601Z,99081.09
2022-08-28T18:00:06.513Z,99093.59
2022-08-28T18:02:58.514Z,99070.72
2022-08-28T18:05:44.938Z,99054.91
2022-08-28T18:08:31.335Z,99073.75
2022-08-28T18:11:19.008Z,99086.34
2022-08-28T18:14:06.564Z,99062.94
2022-08-28T18:16:53.168Z,99072.94
2022-08-28T18:19:40.136Z,99058.22
2022-08-28T18:22:29.818Z,99068.81
2022-08-28T18:25:36.145Z,99090.72
2022-08-28T18:28:24.645Z,99098.78
2022-08-28T18:31:10.830Z,99091.91
2022-08-28T18:34:00.229Z,99106.06
2022-08-28T18:36:46.886Z,99095.28
2022-08-28T18:39:35.806Z,99098.13
2022-08-28T18:42:22.090Z,99116.31
2022-08-28T18:45:09.609Z,99122.66
2022-08-28T18:47:55.933Z,99109.19
2022-08-28T18:50:46.351Z,99128.19
2022-08-28T18:53:32.771Z,99110.22
2022-08-28T18:56:19.462Z,99118.19
2022-08-28T18:59:07.397Z,99133.84
2022-08-28T19:01:53.682Z,99149.84
2022-08-28T19:04:42.643Z,99129.13
2022-08-28T19:07:29.014Z,99152.72
2022-08-28T19:10:32.938Z,99155.00
2022-08-28T19:13:20.823Z,99164.16
2022-08-28T19:16:08.529Z,99139.75
2022-08-28T19:18:55.637Z,99169.84
2022-08-28T19:21:41.998Z,99157.38
2022-08-28T19:24:33.669Z,99172.53
2022-08-28T19:27:20.629Z,99165.47
2022-08-28T19:30:09.914Z,99174.16
2022-08-28T19:32:56.154Z,99151.94
2022-08-28T19:35:42.794Z,99178.25
2022-08-28T19:38:29.426Z,99157.88
2022-08-28T19:41:17.603Z,99145.97
2022-08-28T19:44:05.353Z,99183.34
2022-08-28T19:46:52.160Z,99179.13
2022-08-28T19:49:38.442Z,99150.13
2022-08-28T19:52:25.019Z,99191.56
2022-08-28T19:55:18.232Z,99175.75
2022-08-28T19:58:06.618Z,99178.44
2022-08-28T20:00:53.042Z,99157.91
2022-08-28T20:03:40.426Z,99138.53
2022-08-28T20:06:28.306Z,99182.44
2022-08-28T20:09:14.753Z,99199.88
2022-08-28T20:12:02.376Z,99156.47
2022-08-28T20:14:49.288Z,99203.13
2022-08-28T20:17:35.915Z,99192.03
2022-08-28T20:20:30.593Z,99184.41
2022-08-28T20:23:18.300Z,99212.16
2022-08-28T20:26:05.419Z,99170.34
2022-08-28T20:28:52.713Z,99188.59
2022-08-28T20:31:42.238Z,99206.84
2022-08-28T20:34:29.468Z,99193.19
2022-08-28T20:37:16.756Z,99165.09
2022-08-28T20:40:09.701Z,99217.63
2022-08-28T20:42:57.951Z,99193.59
2022-08-28T20:45:44.360Z,99188.38
2022-08-28T20:48:33.307Z,99213.47
2022-08-28T20:51:39.822Z,99171.56
2022-08-28T20:54:28.117Z,99218.28
2022-08-28T20:57:19.126Z,99214.06
2022-08-28T21:00:08.736Z,99216.84
2022-08-28T21:02:55.229Z,99199.94
2022-08-28T21:05:45.921Z,99217.09
2022-08-28T21:08:34.401Z,99182.94
2022-08-28T21:11:20.613Z,99210.69
2022-08-28T21:14:07.759Z,99203.94
2022-08-28T21:16:54.774Z,99186.09
2022-08-28T21:19:41.389Z,99198.16
2022-08-28T21:22:29.561Z,99224.19
2022-08-28T21:25:16.942Z,99230.41
2022-08-28T21:28:04.312Z,99215.63
2022-08-28T21:30:50.837Z,99222.69
2022-08-28T21:33:38.157Z,99232.28
2022-08-28T21:36:24.398Z,99250.28
2022-08-28T21:39:11.746Z,99252.94
2022-08-28T21:41:58.213Z,99240.91
2022-08-28T21:44:51.622Z,99246.22
2022-08-28T21:47:38.770Z,99253.19
2022-08-28T21:50:29.039Z,99201.72
2022-08-28T21:53:16.467Z,99221.66
2022-08-28T21:56:07.342Z,99243.94
2022-08-28T21:58:55.706Z,99224.16
2022-08-28T22:01:42.028Z,99241.63
2022-08-28T22:04:28.819Z,99212.41
2022-08-28T22:07:16.751Z,99189.22
2022-08-28T22:10:04.371Z,99228.88
2022-08-28T22:12:51.723Z,99211.00
2022-08-28T22:15:39.958Z,99257.50
2022-08-28T22:18:34.096Z,99235.28
2022-08-28T22:21:42.878Z,99259.44
2022-08-28T22:24:29.125Z,99235.41
2022-08-28T22:27:15.578Z,99229.31
2022-08-28T22:30:02.042Z,99232.78
2022-08-28T22:32:48.226Z,99240.56
2022-08-28T22:35:34.627Z,99255.38
2022-08-28T22:38:23.228Z,99260.56
2022-08-28T22:41:10.012Z,99226.16
2022-08-28T22:43:56.571Z,99230.50
2022-08-28T22:46:42.857Z,99234.13
2022-08-28T22:49:29.212Z,99248.91
2022-08-28T22:52:16.661Z,99263.59
2022-08-28T22:55:04.407Z,99237.84
2022-08-28T22:57:53.289Z,99255.25
2022-08-28T23:00:41.020Z,99270.81
2022-08-28T23:03:27.671Z,99267.41
2022-08-28T23:06:14.729Z,99264.03
2022-08-28T23:09:01.188Z,99230.56
2022-08-28T23:11:47.444Z,99241.91
2022-08-28T23:14:34.130Z,99246.22
2022-08-28T23:17:20.586Z,99234.16
2022-08-28T23:20:09.990Z,99248.81
2022-08-28T23:22:58.325Z,99234.31
2022-08-28T23:25:44.974Z,99245.50
2022-08-28T23:28:31.253Z,99182.78
2022-08-28T23:31:18.082Z,99244.66
2022-08-28T23:34:05.590Z,99262.81
2022-08-28T23:36:52.097Z,99219.94
2022-08-28T23:39:38.444Z,99233.66
2022-08-28T23:42:25.092Z,99249.16
2022-08-28T23:45:14.606Z,99252.63
2022-08-28T23:48:01.054Z,99236.31
2022-08-28T23:50:47.689Z,99222.59
2022-08-28T23:53:34.409Z,99173.56
2022-08-28T23:56:22.001Z,99218.34
2022-08-28T23:59:14.398Z,99243.31
